DAUH

Oued Irara Airport

Hassi Messaoud, Algeria
METAR DAUH 222100Z 04005KT CAVOK 27/03 Q1016
Observed Flight Rules
Apr-22 @ 21:00 UTC (40 minutes ago) Visual Flight Rules
Wind Visibility Clouds
40° at 5 knots 10,000+ meters
  • Clear skies
Temperatures Readings
Current 27°C / 81°F
Dewpoint 3°C / 37°F
Humidity 21%
Altimeter 30" Hg
Pressure 1016 hPa
Elevation 142
METAR DAUH 222100Z 04005KT CAVOK 27/03 Q1016
Observed Flight Rules
Apr-22 @ 21:00 UTC
(40 minutes ago)
VFR
Wind Visibility
40° at 5 knots 10,000+ meters
Clouds
  • Clear skies
Temperature Dewpoint
27°C / 81°F 3°C / 37°F
Humidity Altimeter Pressure
21% 30" Hg 1016 hPa